createdAt,value
2022-10-21T00:02:41.591Z,101134.59
2022-10-21T00:05:44.224Z,101139.47
2022-10-21T00:08:46.949Z,101128.03
2022-10-21T00:11:49.614Z,101110.84
2022-10-21T00:14:56.433Z,101128.63
2022-10-21T00:18:00.418Z,101159.03
2022-10-21T00:21:07.148Z,101161.34
2022-10-21T00:24:10.049Z,101144.00
2022-10-21T00:27:12.622Z,101157.25
2022-10-21T00:30:16.756Z,101174.41
2022-10-21T00:33:19.498Z,101172.50
2022-10-21T00:36:22.092Z,101163.53
2022-10-21T00:39:24.850Z,101169.34
2022-10-21T00:42:34.497Z,101160.41
2022-10-21T00:45:38.726Z,101150.81
2022-10-21T00:48:44.307Z,101153.59
2022-10-21T00:51:50.660Z,101149.06
2022-10-21T00:54:56.201Z,101146.34
2022-10-21T00:57:59.063Z,101135.03
2022-10-21T01:01:04.996Z,101119.66
2022-10-21T01:04:07.739Z,101109.53
2022-10-21T01:07:10.513Z,101099.06
2022-10-21T01:10:13.251Z,101119.41
2022-10-21T01:13:24.438Z,101106.53
2022-10-21T01:16:37.830Z,101108.22
2022-10-21T01:20:05.178Z,101103.81
2022-10-21T01:23:31.312Z,101112.97
2022-10-21T01:27:13.021Z,101110.84
2022-10-21T01:30:45.034Z,101104.69
2022-10-21T01:33:54.308Z,101092.75
2022-10-21T01:37:02.903Z,101089.31
2022-10-21T01:40:10.326Z,101085.38
2022-10-21T01:43:21.813Z,101086.78
2022-10-21T01:46:28.723Z,101086.28
2022-10-21T01:49:37.815Z,101073.25
2022-10-21T01:52:43.352Z,101064.59
2022-10-21T01:55:48.174Z,101055.78
2022-10-21T01:58:52.827Z,101042.66
2022-10-21T02:01:57.966Z,101044.06
2022-10-21T02:05:07.847Z,101036.59
2022-10-21T02:08:10.598Z,101031.88
2022-10-21T02:11:13.730Z,101016.09
2022-10-21T02:14:21.106Z,101010.47
2022-10-21T02:17:24.189Z,101008.81
2022-10-21T02:20:32.483Z,100993.06
2022-10-21T02:23:46.835Z,100994.84
2022-10-21T02:26:49.784Z,101014.03
2022-10-21T02:29:56.666Z,101023.16
2022-10-21T02:33:06.919Z,101023.16
2022-10-21T02:36:15.428Z,101018.25
2022-10-21T02:39:22.894Z,101018.13
2022-10-21T02:42:29.835Z,101003.66
2022-10-21T02:45:34.220Z,101003.78
2022-10-21T02:48:38.318Z,100995.09
2022-10-21T02:51:43.190Z,100978.28
2022-10-21T02:54:45.723Z,100976.06
2022-10-21T02:57:48.429Z,100969.41
2022-10-21T03:00:51.010Z,100973.50
2022-10-21T03:03:53.815Z,100965.50
2022-10-21T03:06:57.882Z,100955.22
2022-10-21T03:10:00.461Z,100957.44
2022-10-21T03:13:03.222Z,100952.13
2022-10-21T03:16:06.203Z,100958.72
2022-10-21T03:19:08.926Z,100948.56
2022-10-21T03:22:12.983Z,100954.63
2022-10-21T03:25:15.556Z,100968.19
2022-10-21T03:28:18.291Z,100969.34
2022-10-21T03:31:20.881Z,100966.78
2022-10-21T03:34:23.582Z,100963.94
2022-10-21T03:37:27.711Z,100959.38
2022-10-21T03:40:30.861Z,100943.84
2022-10-21T03:43:33.546Z,100945.91
2022-10-21T03:46:36.121Z,100953.22
2022-10-21T03:49:38.699Z,100957.88
2022-10-21T03:52:42.840Z,100958.38
2022-10-21T03:55:45.450Z,100943.31
2022-10-21T03:58:48.133Z,100939.69
2022-10-21T04:01:50.704Z,100939.50
2022-10-21T04:04:53.493Z,100938.94
2022-10-21T04:07:57.423Z,100935.78
2022-10-21T04:11:00.138Z,100931.78
2022-10-21T04:14:02.778Z,100926.47
2022-10-21T04:17:07.691Z,100907.78
2022-10-21T04:20:11.783Z,100909.34
2022-10-21T04:23:15.773Z,100886.19
2022-10-21T04:26:18.499Z,100880.09
2022-10-21T04:29:21.230Z,100871.88
2022-10-21T04:32:23.790Z,100870.00
2022-10-21T04:35:26.523Z,100868.66
2022-10-21T04:38:30.499Z,100869.63
2022-10-21T04:41:33.085Z,100870.94
2022-10-21T04:44:35.671Z,100875.53
2022-10-21T04:47:38.514Z,100883.81
2022-10-21T04:50:41.413Z,100880.50
2022-10-21T04:53:45.549Z,100871.13
2022-10-21T04:56:48.299Z,100872.59
2022-10-21T04:59:50.862Z,100869.03
2022-10-21T05:02:53.568Z,100859.41
2022-10-21T05:05:56.295Z,100842.44
2022-10-21T05:09:00.416Z,100846.34
2022-10-21T05:12:03.383Z,100838.19
2022-10-21T05:15:06.585Z,100841.25
2022-10-21T05:18:09.170Z,100839.69
2022-10-21T05:21:11.843Z,100834.69
2022-10-21T05:24:16.127Z,100824.88
2022-10-21T05:27:18.669Z,100828.13
2022-10-21T05:30:21.255Z,100820.28
2022-10-21T05:33:23.798Z,100819.69
2022-10-21T05:36:26.514Z,100813.09
2022-10-21T05:39:30.608Z,100818.72
2022-10-21T05:42:33.239Z,100807.13
2022-10-21T05:45:35.810Z,100805.78
2022-10-21T05:48:38.462Z,100811.84
2022-10-21T05:51:41.205Z,100804.66
2022-10-21T05:54:45.139Z,100802.78
2022-10-21T05:57:47.744Z,100800.44
2022-10-21T06:00:51.118Z,100800.88
2022-10-21T06:03:53.731Z,100793.69
2022-10-21T06:10:06.361Z,100808.28
2022-10-21T06:13:08.959Z,100796.88
2022-10-21T06:16:13.783Z,100794.41
2022-10-21T06:19:16.488Z,100810.38
2022-10-21T06:22:19.183Z,100803.69
2022-10-21T06:25:23.958Z,100806.38
2022-10-21T06:28:28.140Z,100802.59
2022-10-21T06:31:30.843Z,100809.81
2022-10-21T06:34:33.421Z,100813.44
2022-10-21T06:37:36.432Z,100823.16
2022-10-21T06:40:40.664Z,100819.84
2022-10-21T06:43:43.704Z,100819.50
2022-10-21T06:46:46.402Z,100823.97
2022-10-21T06:49:48.961Z,100827.69
2022-10-21T06:52:51.597Z,100830.56
2022-10-21T06:56:03.393Z,100818.53
2022-10-21T06:59:05.999Z,100812.03
2022-10-21T07:02:10.231Z,100816.09
2022-10-21T07:05:12.784Z,100812.94
2022-10-21T07:08:15.528Z,100817.94
2022-10-21T07:11:20.758Z,100829.75
2022-10-21T07:14:23.845Z,100835.16
2022-10-21T07:17:26.762Z,100835.59
2022-10-21T07:20:29.321Z,100829.84
2022-10-21T07:23:32.025Z,100838.47
2022-10-21T07:26:36.333Z,100855.34
2022-10-21T07:29:38.951Z,100853.59
2022-10-21T07:32:41.650Z,100854.75
2022-10-21T07:35:44.231Z,100840.25
2022-10-21T07:38:48.024Z,100842.00
2022-10-21T07:41:54.086Z,100844.66
2022-10-21T07:44:59.420Z,100856.44
2022-10-21T07:48:02.109Z,100848.41
2022-10-21T07:51:06.091Z,100836.38
2022-10-21T07:54:09.578Z,100841.94
2022-10-21T07:57:13.492Z,100848.31
2022-10-21T08:00:16.209Z,100838.66
2022-10-21T08:03:18.876Z,100840.97
2022-10-21T08:06:22.194Z,100840.44
2022-10-21T08:09:26.386Z,100837.19
2022-10-21T08:12:30.434Z,100841.06
2022-10-21T08:15:34.732Z,100834.25
2022-10-21T08:18:37.433Z,100834.28
2022-10-21T08:21:40.001Z,100818.66
2022-10-21T08:24:42.684Z,100812.31
2022-10-21T08:27:46.712Z,100820.97
2022-10-21T08:30:49.530Z,100827.81
2022-10-21T08:33:52.211Z,100818.19
2022-10-21T08:36:54.745Z,100804.75
2022-10-21T08:39:57.406Z,100805.28
2022-10-21T08:43:08.807Z,100793.53
2022-10-21T08:46:16.824Z,100799.53
2022-10-21T08:49:27.270Z,100786.88
2022-10-21T08:52:40.312Z,100791.88
2022-10-21T08:55:45.758Z,100789.97
2022-10-21T08:58:52.602Z,100798.06
2022-10-21T09:02:02.344Z,100782.38
2022-10-21T09:05:24.146Z,100786.81
2022-10-21T09:08:35.856Z,100778.78
2022-10-21T09:12:03.905Z,100769.97
2022-10-21T09:15:18.900Z,100774.34
2022-10-21T09:18:32.217Z,100760.00
2022-10-21T09:21:46.240Z,100758.56
2022-10-21T09:24:53.401Z,100754.69
2022-10-21T09:27:57.524Z,100765.47
2022-10-21T09:31:04.429Z,100756.03
2022-10-21T09:34:17.407Z,100752.28
2022-10-21T09:37:29.418Z,100766.63
2022-10-21T09:40:34.931Z,100764.22
2022-10-21T09:43:37.632Z,100758.03
2022-10-21T09:46:41.568Z,100752.31
2022-10-21T09:50:06.254Z,100748.47
2022-10-21T09:53:16.428Z,100756.22
2022-10-21T09:56:21.330Z,100752.13
2022-10-21T09:59:29.056Z,100753.06
2022-10-21T10:02:38.022Z,100754.75
2022-10-21T10:05:44.062Z,100745.34
2022-10-21T10:08:48.201Z,100748.66
2022-10-21T10:11:54.584Z,100753.00
2022-10-21T10:14:57.704Z,100749.22
2022-10-21T10:18:04.582Z,100751.22
2022-10-21T10:21:11.122Z,100743.91
2022-10-21T10:24:22.580Z,100731.88
2022-10-21T10:27:26.733Z,100730.47
2022-10-21T10:30:38.090Z,100713.25
2022-10-21T10:33:58.713Z,100711.38
2022-10-21T10:37:06.008Z,100707.38
2022-10-21T10:40:11.205Z,100710.28
2022-10-21T10:43:16.886Z,100708.91
2022-10-21T10:49:56.904Z,100706.53
2022-10-21T10:53:21.453Z,100693.50
2022-10-21T10:56:29.362Z,100691.25
2022-10-21T10:59:36.803Z,100682.69
2022-10-21T11:02:49.226Z,100675.81
2022-10-21T11:05:58.951Z,100679.25
2022-10-21T11:09:03.458Z,100669.34
2022-10-21T11:12:14.460Z,100671.44
2022-10-21T11:15:17.659Z,100672.59
2022-10-21T11:18:30.128Z,100671.31
2022-10-21T11:21:46.613Z,100672.69
2022-10-21T11:25:05.422Z,100673.34
2022-10-21T11:28:17.167Z,100669.78
2022-10-21T11:31:27.156Z,100667.00
2022-10-21T11:34:40.656Z,100669.16
2022-10-21T11:37:56.495Z,100667.63
2022-10-21T11:41:07.657Z,100664.44
2022-10-21T11:44:20.919Z,100667.09
2022-10-21T11:47:35.992Z,100665.03
2022-10-21T11:50:45.467Z,100669.44
2022-10-21T11:54:07.743Z,100663.59
2022-10-21T11:57:18.087Z,100665.47
2022-10-21T12:00:24.698Z,100664.56
2022-10-21T12:03:44.911Z,100663.63
2022-10-21T12:06:57.570Z,100654.97
2022-10-21T12:10:06.394Z,100651.81
2022-10-21T12:13:16.395Z,100662.38
2022-10-21T12:16:24.079Z,100670.13
2022-10-21T12:19:27.861Z,100669.38
2022-10-21T12:22:33.619Z,100670.78
2022-10-21T12:25:45.531Z,100669.09
2022-10-21T12:28:57.763Z,100655.78
2022-10-21T12:32:07.240Z,100660.22
2022-10-21T12:35:14.493Z,100657.25
2022-10-21T12:38:22.956Z,100659.81
2022-10-21T12:41:34.324Z,100669.28
2022-10-21T12:44:39.248Z,100663.81
2022-10-21T12:47:46.187Z,100660.28
2022-10-21T12:50:58.308Z,100650.63
2022-10-21T12:54:08.643Z,100648.22
2022-10-21T12:57:25.087Z,100656.69
2022-10-21T13:00:56.448Z,100656.97
2022-10-21T13:03:59.074Z,100660.03
2022-10-21T13:07:02.572Z,100647.19
2022-10-21T13:10:26.655Z,100643.13
2022-10-21T13:13:34.166Z,100639.28
2022-10-21T13:16:40.348Z,100633.16
2022-10-21T13:19:43.198Z,100630.31
2022-10-21T13:22:47.832Z,100625.53
2022-10-21T13:26:13.561Z,100625.56
2022-10-21T13:29:46.267Z,100630.75
2022-10-21T13:33:01.396Z,100631.25
2022-10-21T13:36:11.913Z,100625.53
2022-10-21T13:39:25.864Z,100628.09
2022-10-21T13:42:34.583Z,100636.09
2022-10-21T13:45:44.006Z,100637.28
2022-10-21T13:48:48.712Z,100642.59
2022-10-21T13:51:53.834Z,100634.59
2022-10-21T13:55:00.589Z,100629.13
2022-10-21T13:58:03.142Z,100622.47
2022-10-21T14:01:12.310Z,100620.38
2022-10-21T14:04:16.840Z,100619.81
2022-10-21T14:07:20.882Z,100635.78
2022-10-21T14:10:23.711Z,100627.56
2022-10-21T14:13:29.946Z,100637.25
2022-10-21T14:16:36.804Z,100640.84
2022-10-21T14:19:40.041Z,100633.16
2022-10-21T14:22:43.549Z,100639.38
2022-10-21T14:25:48.929Z,100628.72
2022-10-21T14:28:52.137Z,100635.16
2022-10-21T14:31:56.312Z,100637.94
2022-10-21T14:35:03.099Z,100627.19
2022-10-21T14:38:26.420Z,100640.19
2022-10-21T14:41:33.580Z,100627.34
2022-10-21T14:44:36.249Z,100623.97
2022-10-21T14:47:40.196Z,100621.56
2022-10-21T14:50:43.933Z,100629.25
2022-10-21T14:53:51.589Z,100617.22
2022-10-21T14:56:54.561Z,100627.97
2022-10-21T14:59:58.213Z,100618.03
2022-10-21T15:03:02.933Z,100606.28
2022-10-21T15:06:10.886Z,100614.16
2022-10-21T15:09:23.296Z,100608.28
2022-10-21T15:12:26.026Z,100602.56
2022-10-21T15:15:53.827Z,100595.69
2022-10-21T15:18:59.284Z,100587.97
2022-10-21T15:22:04.138Z,100594.72
2022-10-21T15:25:16.807Z,100591.28
2022-10-21T15:28:20.822Z,100587.09
2022-10-21T15:31:25.031Z,100587.97
2022-10-21T15:34:29.558Z,100594.91
2022-10-21T15:37:32.252Z,100588.50
2022-10-21T15:40:34.818Z,100586.09
2022-10-21T15:43:37.583Z,100585.75
2022-10-21T15:46:46.206Z,100585.63
2022-10-21T15:49:51.001Z,100587.03
2022-10-21T15:56:01.998Z,100581.75
2022-10-21T15:59:05.238Z,100578.28
2022-10-21T16:02:14.101Z,100582.59
2022-10-21T16:05:21.489Z,100587.69
2022-10-21T16:08:24.116Z,100584.72
2022-10-21T16:11:40.638Z,100584.94
2022-10-21T16:14:44.125Z,100588.84
2022-10-21T16:17:48.939Z,100583.13
2022-10-21T16:20:54.919Z,100590.03
2022-10-21T16:23:58.552Z,100584.19
2022-10-21T16:27:01.223Z,100591.13
2022-10-21T16:30:14.907Z,100598.06
2022-10-21T16:33:17.615Z,100599.97
2022-10-21T16:36:23.931Z,100602.00
2022-10-21T16:39:26.529Z,100603.63
2022-10-21T16:42:29.160Z,100602.28
2022-10-21T16:45:33.638Z,100606.22
2022-10-21T16:48:36.233Z,100600.78
2022-10-21T16:51:41.762Z,100607.53
2022-10-21T16:54:48.461Z,100606.06
2022-10-21T16:57:51.514Z,100606.09
2022-10-21T17:00:54.309Z,100600.13
2022-10-21T17:03:56.908Z,100603.69
2022-10-21T17:07:01.971Z,100607.88
2022-10-21T17:10:05.064Z,100612.88
2022-10-21T17:13:07.925Z,100617.66
2022-10-21T17:16:10.969Z,100619.88
2022-10-21T17:19:14.170Z,100621.06
2022-10-21T17:22:18.130Z,100615.13
2022-10-21T17:25:22.789Z,100627.28
2022-10-21T17:28:25.332Z,100628.38
2022-10-21T17:31:29.576Z,100632.38
2022-10-21T17:34:36.648Z,100630.19
2022-10-21T17:37:40.969Z,100639.06
2022-10-21T17:40:43.764Z,100635.16
2022-10-21T17:43:46.326Z,100641.88
2022-10-21T17:46:52.949Z,100643.16
2022-10-21T17:49:55.511Z,100647.88
2022-10-21T17:53:00.463Z,100642.34
2022-10-21T17:56:06.307Z,100644.88
2022-10-21T17:59:09.451Z,100644.28
2022-10-21T18:02:12.125Z,100639.63
2022-10-21T18:05:14.824Z,100631.94
2022-10-21T18:08:18.750Z,100636.28
2022-10-21T18:11:22.187Z,100631.28
2022-10-21T18:14:24.743Z,100633.53
2022-10-21T18:17:27.484Z,100630.16
2022-10-21T18:20:30.196Z,100633.22
2022-10-21T18:23:34.499Z,100632.91
2022-10-21T18:26:37.737Z,100626.06
2022-10-21T18:29:40.295Z,100629.34
2022-10-21T18:32:43.191Z,100626.34
2022-10-21T18:35:45.881Z,100636.28
2022-10-21T18:38:50.195Z,100633.00
2022-10-21T18:41:53.691Z,100643.69
2022-10-21T18:44:56.256Z,100643.41
2022-10-21T18:47:58.980Z,100639.28
2022-10-21T18:51:06.490Z,100635.13
2022-10-21T18:54:10.710Z,100630.16
2022-10-21T18:57:13.437Z,100623.53
2022-10-21T19:00:16.194Z,100630.97
2022-10-21T19:03:18.870Z,100631.53
2022-10-21T19:06:31.648Z,100622.16
2022-10-21T19:09:38.256Z,100624.06
2022-10-21T19:12:40.952Z,100622.13
2022-10-21T19:15:44.160Z,100621.28
2022-10-21T19:18:46.910Z,100618.53
2022-10-21T19:21:49.613Z,100621.81
2022-10-21T19:24:53.711Z,100626.53
2022-10-21T19:27:56.425Z,100634.00
2022-10-21T19:30:59.024Z,100642.56
2022-10-21T19:34:01.761Z,100654.44
2022-10-21T19:37:04.346Z,100659.38
2022-10-21T19:40:09.162Z,100656.31
2022-10-21T19:43:14.882Z,100660.72
2022-10-21T19:46:22.384Z,100658.56
2022-10-21T19:49:28.177Z,100659.91
2022-10-21T19:52:30.725Z,100667.38
2022-10-21T19:55:35.198Z,100663.78
2022-10-21T19:58:39.853Z,100669.91
2022-10-21T20:01:42.612Z,100665.16
2022-10-21T20:04:45.487Z,100660.19
2022-10-21T20:07:48.049Z,100662.66
2022-10-21T20:11:01.083Z,100673.41
2022-10-21T20:14:04.249Z,100669.00
2022-10-21T20:17:06.948Z,100666.78
2022-10-21T20:20:09.945Z,100658.19
2022-10-21T20:23:12.517Z,100659.31
2022-10-21T20:26:16.727Z,100669.53
2022-10-21T20:29:19.671Z,100668.72
2022-10-21T20:32:22.365Z,100672.28
2022-10-21T20:35:25.066Z,100662.59
2022-10-21T20:38:27.637Z,100665.94
2022-10-21T20:41:34.563Z,100659.00
2022-10-21T20:44:37.197Z,100672.00
2022-10-21T20:47:40.244Z,100665.94
2022-10-21T20:50:43.184Z,100672.53
2022-10-21T20:56:55.336Z,100674.19
2022-10-21T20:59:58.044Z,100673.91
2022-10-21T21:03:00.753Z,100675.31
2022-10-21T21:06:07.113Z,100671.97
2022-10-21T21:12:33.967Z,100673.06
2022-10-21T21:15:36.674Z,100681.66
2022-10-21T21:18:40.926Z,100678.91
2022-10-21T21:21:43.490Z,100682.72
2022-10-21T21:24:46.213Z,100677.78
2022-10-21T21:27:50.546Z,100687.47
2022-10-21T21:30:53.519Z,100675.31
2022-10-21T21:33:56.665Z,100683.88
2022-10-21T21:36:59.897Z,100679.75
2022-10-21T21:40:02.665Z,100677.28
2022-10-21T21:43:06.647Z,100673.13
2022-10-21T21:46:09.620Z,100689.72
2022-10-21T21:49:12.193Z,100686.69
2022-10-21T21:52:15.080Z,100686.13
2022-10-21T21:55:17.675Z,100675.72
2022-10-21T21:58:21.613Z,100671.84
2022-10-21T22:01:26.951Z,100672.94
2022-10-21T22:04:29.638Z,100679.28
2022-10-21T22:07:33.113Z,100664.66
2022-10-21T22:10:36.174Z,100664.94
2022-10-21T22:13:40.971Z,100666.06
2022-10-21T22:16:43.733Z,100665.25
2022-10-21T22:19:48.673Z,100667.72
2022-10-21T22:22:53.322Z,100678.75
2022-10-21T22:25:56.499Z,100680.66
2022-10-21T22:29:00.438Z,100675.72
2022-10-21T22:32:03.116Z,100679.06
2022-10-21T22:35:06.372Z,100685.41
2022-10-21T22:38:09.062Z,100694.25
2022-10-21T22:41:12.810Z,100681.31
2022-10-21T22:44:16.997Z,100678.00
2022-10-21T22:47:23.408Z,100695.41
2022-10-21T22:50:26.006Z,100695.41
2022-10-21T22:53:29.073Z,100700.06
2022-10-21T22:56:32.190Z,100693.41
2022-10-21T22:59:37.417Z,100686.78
2022-10-21T23:02:40.536Z,100679.88
2022-10-21T23:05:43.865Z,100680.72
2022-10-21T23:08:46.694Z,100694.75
2022-10-21T23:11:49.814Z,100701.88
2022-10-21T23:14:53.732Z,100711.28
2022-10-21T23:17:56.457Z,100696.66
2022-10-21T23:20:59.112Z,100694.47
2022-10-21T23:24:01.842Z,100695.88
2022-10-21T23:27:04.849Z,100691.47
2022-10-21T23:30:09.717Z,100668.53
2022-10-21T23:33:12.423Z,100670.47
2022-10-21T23:36:15.013Z,100673.78
2022-10-21T23:39:17.812Z,100676.84
2022-10-21T23:42:20.507Z,100669.66
2022-10-21T23:45:24.933Z,100661.66
2022-10-21T23:48:27.631Z,100662.75
2022-10-21T23:51:30.280Z,100658.06
2022-10-21T23:54:32.985Z,100647.28
2022-10-21T23:57:35.772Z,100640.94
